This is the latest recevied weather packets stored in our database for station/object K3SV. If no packets are shown the sender has not sent any weather packets the latest 10 day(s).
| Time | Temp. | Humidity | Pressure | Rain* | Wind** | Luminosity | Snow |
|---|---|---|---|---|---|---|---|
| 1777474005 | 26.67° C | 75% | 1017.7 hPa | 0 mm | - | 520 W/m² | - |
| 1777473704 | 26.11° C | 76% | 1017.9 hPa | 0 mm | - | 510 W/m² | - |
| 1777473399 | 27.22° C | 74% | 1017.8 hPa | 0 mm | - | 485 W/m² | - |
| 1777473095 | 26.67° C | 76% | 1017.6 hPa | 0 mm | - | 463 W/m² | - |
| 1777472793 | 26.11° C | 78% | 1017.9 hPa | 0 mm | - | 463 W/m² | - |
| 1777472489 | 26.11° C | 80% | 1017.7 hPa | 0 mm | - | 456 W/m² | - |
| 1777472187 | 25.56° C | 80% | 1017.9 hPa | 0 mm | - | 438 W/m² | - |
| 1777471886 | 25° C | 82% | 1018 hPa | 0 mm | - | 423 W/m² | - |
| 1777471584 | 23.89° C | 86% | 1018 hPa | 0 mm | - | 414 W/m² | - |
| 1777471280 | 23.89° C | 86% | 1017.8 hPa | 0 mm | - | 417 W/m² | - |
| 1777470977 | 23.89° C | 86% | 1017.9 hPa | 0 mm | - | 116 W/m² | - |
| 1777470674 | 24.44° C | 85% | 1018 hPa | 0 mm | - | 169 W/m² | - |
| 1777470369 | 24.44° C | 84% | 1018.2 hPa | 0 mm | - | 350 W/m² | - |
| 1777470067 | 24.44° C | 85% | 1018.3 hPa | 0 mm | - | 347 W/m² | - |
| 1777469762 | 23.89° C | 87% | 1018.2 hPa | 0 mm | - | 320 W/m² | - |
| 1777469459 | 23.89° C | 88% | 1018.3 hPa | 0 mm | - | 304 W/m² | - |
| 1777469153 | 23.33° C | 89% | 1018.1 hPa | 0 mm | - | 277 W/m² | - |
| 1777468848 | 23.33° C | 88% | 1018 hPa | 0 mm | - | 272 W/m² | - |
| 1777468544 | 23.33° C | 88% | 1017.8 hPa | 0 mm | - | 261 W/m² | - |
| 1777468241 | 23.33° C | 88% | 1017.7 hPa | 0 mm | - | 226 W/m² | - |
| 1777467938 | 22.78° C | 91% | 1017.7 hPa | 0 mm | - | 195 W/m² | - |
| 1777467633 | 21.67° C | 95% | 1017.5 hPa | 0 mm | - | 173 W/m² | - |
| 1777467329 | 20.56° C | 96% | 1017.5 hPa | 0 mm | - | 129 W/m² | - |
| 1777467025 | 20.56° C | 96% | 1017.7 hPa | 0 mm | - | 86 W/m² | - |
| 1777466723 | 20.56° C | 97% | 1017.6 hPa | 0 mm | - | 91 W/m² | - |
* Rain latest hour (hover to see other rain measurements)
** Current wind speed in m/s (hover to see current wind gust speed)